createdAt,value
2019-01-06T00:00:06.355Z,95.80
2019-01-06T00:05:09.516Z,96.10
2019-01-06T00:10:29.675Z,95.70
2019-01-06T00:15:49.433Z,96.20
2019-01-06T00:20:58.559Z,95.50
2019-01-06T00:26:07.527Z,95.50
2019-01-06T00:31:10.748Z,94.90
2019-01-06T00:36:32.092Z,95.50
2019-01-06T00:41:41.045Z,95.20
2019-01-06T00:46:50.158Z,94.80
2019-01-06T00:52:02.468Z,94.10
2019-01-06T00:57:05.628Z,93.90
2019-01-06T01:02:08.774Z,92.80
2019-01-06T01:07:29.922Z,92.60
2019-01-06T01:12:49.746Z,92.20
2019-01-06T01:18:02.092Z,92.70
2019-01-06T01:23:17.600Z,92.50
2019-01-06T01:28:21.010Z,93.10
2019-01-06T01:33:41.010Z,93.50
2019-01-06T01:38:59.491Z,93.20
2019-01-06T01:44:09.012Z,93.00
2019-01-06T01:49:29.306Z,94.50
2019-01-06T01:54:38.504Z,94.90
2019-01-06T01:59:58.889Z,94.50
2019-01-06T02:05:19.105Z,93.50
2019-01-06T02:10:22.425Z,93.10
2019-01-06T02:15:34.780Z,93.10
2019-01-06T02:20:40.808Z,94.40
2019-01-06T02:25:49.606Z,93.30
2019-01-06T02:31:04.564Z,93.20
2019-01-06T02:36:13.391Z,93.80
2019-01-06T02:41:33.363Z,94.50
2019-01-06T02:46:39.374Z,93.00
2019-01-06T02:51:45.460Z,93.50
2019-01-06T02:57:05.284Z,93.40
2019-01-06T03:02:11.083Z,93.40
2019-01-06T03:07:30.988Z,92.90
2019-01-06T03:12:34.127Z,94.10
2019-01-06T03:17:43.275Z,93.40
2019-01-06T03:22:55.431Z,92.10
2019-01-06T03:28:15.202Z,93.10
2019-01-06T03:33:33.371Z,93.20
2019-01-06T03:38:53.124Z,93.00
2019-01-06T03:43:59.145Z,92.60
2019-01-06T03:49:05.168Z,92.40
2019-01-06T03:54:23.561Z,92.30
2019-01-06T03:59:38.751Z,92.60
2019-01-06T04:04:47.649Z,94.00
2019-01-06T04:09:59.584Z,94.80
2019-01-06T04:15:20.785Z,94.20
2019-01-06T04:20:23.927Z,93.40
2019-01-06T04:25:43.633Z,94.20
2019-01-06T04:30:55.891Z,94.90
2019-01-06T04:36:15.598Z,94.90
2019-01-06T04:41:18.749Z,94.90
2019-01-06T04:46:27.835Z,95.00
2019-01-06T04:51:36.974Z,95.10
2019-01-06T04:56:58.429Z,95.20
2019-01-06T05:02:18.583Z,96.50
2019-01-06T05:07:38.308Z,95.80
2019-01-06T05:12:44.340Z,96.70
2019-01-06T05:18:04.055Z,96.80
2019-01-06T05:23:23.836Z,97.60
2019-01-06T05:28:41.914Z,97.60
2019-01-06T05:33:53.710Z,98.10
2019-01-06T05:38:56.855Z,98.20
2019-01-06T05:44:11.897Z,98.10
2019-01-06T05:49:31.781Z,97.90
2019-01-06T05:54:50.247Z,97.60
2019-01-06T06:00:11.764Z,98.30
2019-01-06T06:05:17.841Z,97.60
2019-01-06T06:10:21.003Z,97.50
2019-01-06T06:15:29.842Z,97.50
2019-01-06T06:20:35.957Z,96.70
2019-01-06T06:25:42.071Z,96.30
2019-01-06T06:30:45.216Z,95.80
2019-01-06T06:35:54.244Z,96.30
2019-01-06T06:41:00.292Z,95.90
2019-01-06T06:46:09.210Z,96.20
2019-01-06T06:51:21.452Z,96.60
2019-01-06T06:56:27.195Z,96.40
2019-01-06T07:01:37.977Z,96.40
2019-01-06T07:06:47.052Z,96.20
2019-01-06T07:11:52.918Z,96.00
2019-01-06T07:17:46.526Z,95.90
2019-01-06T07:22:52.318Z,95.10
2019-01-06T07:28:02.212Z,95.60
2019-01-06T07:33:05.344Z,95.50
2019-01-06T07:38:14.224Z,95.10
2019-01-06T07:43:20.449Z,94.90
2019-01-06T07:48:30.679Z,94.90
2019-01-06T07:53:39.483Z,95.50
2019-01-06T07:58:48.416Z,95.00
2019-01-06T08:03:57.723Z,95.30
2019-01-06T08:09:06.594Z,94.30
2019-01-06T08:14:21.871Z,95.10
2019-01-06T08:19:33.963Z,93.50
2019-01-06T08:24:42.822Z,92.60
2019-01-06T08:30:00.979Z,92.10
2019-01-06T08:35:21.098Z,92.30
2019-01-06T08:40:42.567Z,92.70
2019-01-06T08:45:54.829Z,92.00
2019-01-06T08:51:04.120Z,91.10
2019-01-06T08:56:16.155Z,90.70
2019-01-06T09:01:19.379Z,89.80
2019-01-06T09:06:39.124Z,90.90
2019-01-06T09:11:42.258Z,89.40
2019-01-06T09:16:45.504Z,89.20
2019-01-06T09:21:51.288Z,89.00
2019-01-06T09:27:09.716Z,89.30
2019-01-06T09:32:29.411Z,88.50
2019-01-06T09:37:49.107Z,87.90
2019-01-06T09:43:01.031Z,87.90
2019-01-06T09:48:20.849Z,88.60
2019-01-06T09:53:24.003Z,88.30
2019-01-06T09:58:39.427Z,87.30
2019-01-06T10:03:42.563Z,88.30
2019-01-06T10:08:54.823Z,88.00
2019-01-06T10:13:57.965Z,88.20
2019-01-06T10:19:16.204Z,87.10
2019-01-06T10:24:25.278Z,86.90
2019-01-06T10:29:31.483Z,85.10
2019-01-06T10:34:34.636Z,84.50
2019-01-06T10:39:54.763Z,85.80
2019-01-06T10:45:13.164Z,87.00
2019-01-06T10:50:16.331Z,85.50
2019-01-06T10:55:28.184Z,86.30
2019-01-06T11:00:46.318Z,86.20
2019-01-06T11:05:49.451Z,84.60
2019-01-06T11:11:09.584Z,84.00
2019-01-06T11:16:21.558Z,83.10
2019-01-06T11:21:27.314Z,84.40
2019-01-06T11:26:36.632Z,83.40
2019-01-06T11:31:39.805Z,84.30
2019-01-06T11:36:48.915Z,85.30
2019-01-06T11:42:07.479Z,83.30
2019-01-06T11:47:27.498Z,85.20
2019-01-06T11:52:30.672Z,85.90
2019-01-06T11:57:50.326Z,86.20
2019-01-06T12:03:08.689Z,83.60
2019-01-06T12:08:11.963Z,84.20
2019-01-06T12:13:15.107Z,83.80
2019-01-06T12:18:30.385Z,86.80
2019-01-06T12:23:33.574Z,86.00
2019-01-06T12:28:53.478Z,86.90
2019-01-06T12:34:02.457Z,86.60
2019-01-06T12:39:09.313Z,88.20
2019-01-06T12:44:28.968Z,87.90
2019-01-06T12:49:48.723Z,85.90
2019-01-06T12:54:54.509Z,85.60
2019-01-06T13:00:06.814Z,85.20
2019-01-06T13:05:19.235Z,86.10
2019-01-06T13:10:34.686Z,86.70
2019-01-06T13:15:37.882Z,86.30
2019-01-06T13:20:43.924Z,87.20
2019-01-06T13:25:47.451Z,87.80
2019-01-06T13:30:56.622Z,87.60
2019-01-06T13:36:05.811Z,88.40
2019-01-06T13:41:26.086Z,88.70
2019-01-06T13:46:29.872Z,87.80
2019-01-06T13:51:44.871Z,87.70
2019-01-06T13:56:57.046Z,88.40
2019-01-06T14:02:16.804Z,89.90
2019-01-06T14:07:32.255Z,89.50
2019-01-06T14:12:52.278Z,89.90
2019-01-06T14:18:12.663Z,91.10
2019-01-06T14:23:22.084Z,91.20
2019-01-06T14:28:25.724Z,92.00
2019-01-06T14:33:45.447Z,92.90
2019-01-06T14:38:51.516Z,92.60
2019-01-06T14:44:12.499Z,92.10
2019-01-06T14:49:18.516Z,93.00
2019-01-06T14:54:36.639Z,92.60
2019-01-06T14:59:39.829Z,93.50
2019-01-06T15:04:49.574Z,93.90
2019-01-06T15:09:53.227Z,93.50
2019-01-06T15:20:12.263Z,94.10
2019-01-06T15:25:21.675Z,93.20
2019-01-06T15:30:42.022Z,92.40
2019-01-06T15:35:45.203Z,92.80
2019-01-06T15:40:48.387Z,92.90
2019-01-06T15:45:51.559Z,93.10
2019-01-06T15:51:11.249Z,94.00
2019-01-06T15:56:23.584Z,95.10
2019-01-06T16:01:38.908Z,95.00
2019-01-06T16:06:48.142Z,94.40
2019-01-06T16:11:51.331Z,94.20
2019-01-06T16:16:57.414Z,94.60
2019-01-06T16:22:00.585Z,93.30
2019-01-06T16:27:09.678Z,92.60
2019-01-06T16:32:12.958Z,93.00
2019-01-06T16:37:16.114Z,93.50
2019-01-06T16:42:21.965Z,92.80
2019-01-06T16:47:34.135Z,93.00
2019-01-06T16:52:43.824Z,91.70
2019-01-06T16:58:04.196Z,91.90
2019-01-06T17:03:07.898Z,92.10
2019-01-06T17:08:17.114Z,91.60
2019-01-06T17:13:32.716Z,91.30
2019-01-06T17:18:44.929Z,91.00
2019-01-06T17:23:54.091Z,89.70
2019-01-06T17:29:15.774Z,89.60
2019-01-06T17:34:30.968Z,89.70
2019-01-06T17:39:49.345Z,89.50
2019-01-06T17:45:09.120Z,89.80
2019-01-06T17:50:29.251Z,89.10
2019-01-06T17:55:32.422Z,90.40
2019-01-06T18:00:38.236Z,89.50
2019-01-06T18:05:53.651Z,89.60
2019-01-06T18:10:56.829Z,89.60
2019-01-06T18:16:00.026Z,90.60
2019-01-06T18:21:17.997Z,89.80
2019-01-06T18:26:36.172Z,89.50
2019-01-06T18:31:42.173Z,90.70
2019-01-06T18:36:51.251Z,90.20
2019-01-06T18:42:03.383Z,89.60
2019-01-06T18:47:09.447Z,89.40
2019-01-06T18:52:24.827Z,89.00
2019-01-06T18:57:34.093Z,88.60
2019-01-06T19:02:46.369Z,88.10
2019-01-06T19:08:06.308Z,88.00
2019-01-06T19:13:12.478Z,88.50
2019-01-06T19:18:15.668Z,88.40
2019-01-06T19:23:35.433Z,89.20
2019-01-06T19:28:55.150Z,90.20
2019-01-06T19:34:11.191Z,90.20
2019-01-06T19:39:23.805Z,90.60
2019-01-06T19:44:44.495Z,90.70
2019-01-06T19:49:50.626Z,90.10
2019-01-06T19:54:57.138Z,90.70
2019-01-06T20:00:17.317Z,90.60
2019-01-06T20:05:23.380Z,90.60
2019-01-06T20:10:32.631Z,91.10
2019-01-06T20:15:52.338Z,90.60
2019-01-06T20:20:55.551Z,91.10
2019-01-06T20:26:15.252Z,89.90
2019-01-06T20:31:21.779Z,89.70
2019-01-06T20:36:26.370Z,90.40
2019-01-06T20:41:46.854Z,90.40
2019-01-06T20:47:02.513Z,91.10
2019-01-06T20:52:23.144Z,90.20
2019-01-06T20:57:43.889Z,90.40
2019-01-06T21:02:56.586Z,90.50
2019-01-06T21:07:59.752Z,90.70
2019-01-06T21:13:19.773Z,90.40
2019-01-06T21:18:39.903Z,90.20
2019-01-06T21:23:52.238Z,90.30
2019-01-06T21:29:03.003Z,90.90
2019-01-06T21:34:12.226Z,91.10
2019-01-06T21:39:15.643Z,91.00
2019-01-06T21:44:21.484Z,90.90
2019-01-06T21:49:24.678Z,91.30
2019-01-06T21:54:44.577Z,92.00
2019-01-06T21:59:50.593Z,93.60
2019-01-06T22:05:05.685Z,92.00
2019-01-06T22:10:15.213Z,92.90
2019-01-06T22:15:21.297Z,92.50
2019-01-06T22:20:36.188Z,92.70
2019-01-06T22:25:54.344Z,93.30
2019-01-06T22:31:14.326Z,93.90
2019-01-06T22:36:23.422Z,94.80
2019-01-06T22:41:44.993Z,94.30
2019-01-06T22:47:00.036Z,94.20
2019-01-06T22:52:19.903Z,94.20
2019-01-06T22:57:25.694Z,94.30
2019-01-06T23:02:28.839Z,94.50
2019-01-06T23:07:41.020Z,95.00
2019-01-06T23:12:44.315Z,94.60
2019-01-06T23:18:03.941Z,94.80
2019-01-06T23:23:23.932Z,94.70
2019-01-06T23:28:32.997Z,94.90
2019-01-06T23:33:53.025Z,95.00
2019-01-06T23:39:08.066Z,94.70
2019-01-06T23:44:14.304Z,94.70
2019-01-06T23:49:17.441Z,94.80
2019-01-06T23:54:23.359Z,94.80
2019-01-06T23:59:43.027Z,94.90
